createdAt,value
2018-12-23T00:01:19.142Z,3.60
2018-12-23T00:03:46.887Z,4.33
2018-12-23T00:06:14.680Z,4.03
2018-12-23T00:08:42.390Z,3.60
2018-12-23T00:11:10.106Z,3.70
2018-12-23T00:13:38.479Z,3.93
2018-12-23T00:16:06.231Z,4.07
2018-12-23T00:18:33.990Z,3.60
2018-12-23T00:21:01.734Z,4.30
2018-12-23T00:23:29.556Z,3.83
2018-12-23T00:25:57.259Z,3.53
2018-12-23T00:28:25.037Z,4.50
2018-12-23T00:30:52.837Z,3.43
2018-12-23T00:33:20.572Z,2.83
2018-12-23T00:35:48.272Z,3.60
2018-12-23T00:38:16.035Z,3.90
2018-12-23T00:40:43.764Z,4.13
2018-12-23T00:43:12.066Z,3.43
2018-12-23T00:45:39.850Z,4.03
2018-12-23T00:48:07.545Z,3.20
2018-12-23T00:50:35.283Z,3.80
2018-12-23T00:53:03.025Z,3.33
2018-12-23T00:55:30.760Z,3.50
2018-12-23T00:57:58.509Z,3.77
2018-12-23T01:00:26.245Z,4.00
2018-12-23T01:02:54.001Z,3.43
2018-12-23T01:05:28.739Z,3.60
2018-12-23T01:07:51.520Z,3.77
2018-12-23T01:10:19.260Z,3.37
2018-12-23T01:12:47.965Z,3.90
2018-12-23T01:15:15.721Z,4.50
2018-12-23T01:17:43.481Z,3.40
2018-12-23T01:20:11.217Z,3.50
2018-12-23T01:22:39.012Z,3.40
2018-12-23T01:25:08.755Z,4.10
2018-12-23T01:27:36.493Z,3.80
2018-12-23T01:30:04.690Z,4.63
2018-12-23T01:32:32.447Z,3.53
2018-12-23T01:35:00.310Z,3.53
2018-12-23T01:37:28.147Z,3.73
2018-12-23T01:39:55.875Z,3.30
2018-12-23T01:42:23.889Z,3.60
2018-12-23T01:44:51.831Z,3.43
2018-12-23T01:47:19.537Z,4.13
2018-12-23T01:49:47.280Z,3.53
2018-12-23T01:52:15.047Z,4.00
2018-12-23T01:54:43.359Z,4.03
2018-12-23T01:57:11.106Z,3.33
2018-12-23T01:59:38.821Z,3.40
2018-12-23T02:02:06.918Z,3.07
2018-12-23T02:04:35.458Z,3.50
2018-12-23T02:07:03.214Z,3.13
2018-12-23T02:09:37.473Z,3.23
2018-12-23T02:12:05.276Z,3.37
2018-12-23T02:14:38.214Z,3.70
2018-12-23T02:17:06.597Z,3.43
2018-12-23T02:19:34.328Z,3.50
2018-12-23T02:22:02.058Z,4.50
2018-12-23T02:24:29.801Z,3.33
2018-12-23T02:26:57.540Z,3.70
2018-12-23T02:29:25.303Z,2.87
2018-12-23T02:31:57.613Z,3.07
2018-12-23T02:34:25.290Z,3.60
2018-12-23T02:36:53.033Z,3.13
2018-12-23T02:39:20.841Z,3.47
2018-12-23T02:41:48.560Z,3.30
2018-12-23T02:44:16.317Z,3.37
2018-12-23T02:46:44.044Z,3.70
2018-12-23T02:49:11.791Z,2.97
2018-12-23T02:51:39.672Z,3.20
2018-12-23T02:54:07.459Z,3.53
2018-12-23T02:56:35.177Z,4.30
2018-12-23T02:59:02.891Z,3.00
2018-12-23T03:01:30.582Z,3.17
2018-12-23T03:03:58.362Z,3.47
2018-12-23T03:06:26.094Z,3.50
2018-12-23T03:08:53.895Z,3.70
2018-12-23T03:11:21.605Z,3.37
2018-12-23T03:13:49.317Z,3.83
2018-12-23T03:16:17.099Z,3.43
2018-12-23T03:18:44.921Z,3.70
2018-12-23T03:21:12.609Z,3.73
2018-12-23T03:23:40.315Z,3.00
2018-12-23T03:26:08.049Z,3.43
2018-12-23T03:28:35.750Z,3.50
2018-12-23T03:31:03.480Z,2.60
2018-12-23T03:33:31.204Z,3.50
2018-12-23T03:35:58.957Z,3.53
2018-12-23T03:38:27.613Z,3.63
2018-12-23T03:40:55.327Z,3.67
2018-12-23T03:43:23.106Z,3.10
2018-12-23T03:45:50.888Z,2.97
2018-12-23T03:48:18.600Z,3.30
2018-12-23T03:50:46.298Z,3.77
2018-12-23T03:53:14.046Z,3.70
2018-12-23T03:55:41.793Z,3.50
2018-12-23T03:58:09.493Z,3.57
2018-12-23T04:00:38.091Z,3.47
2018-12-23T04:03:05.809Z,3.93
2018-12-23T04:05:33.627Z,4.20
2018-12-23T04:08:01.363Z,3.20
2018-12-23T04:10:30.560Z,4.50
2018-12-23T04:12:58.332Z,3.20
2018-12-23T04:15:27.163Z,3.63
2018-12-23T04:17:54.947Z,3.47
2018-12-23T04:20:22.652Z,3.63
2018-12-23T04:22:51.978Z,4.10
2018-12-23T04:25:19.689Z,3.47
2018-12-23T04:27:49.252Z,3.40
2018-12-23T04:30:16.997Z,2.83
2018-12-23T04:32:44.809Z,3.43
2018-12-23T04:35:12.695Z,3.23
2018-12-23T04:37:40.433Z,3.43
2018-12-23T04:40:08.616Z,4.03
2018-12-23T04:42:36.383Z,3.57
2018-12-23T04:45:04.316Z,3.43
2018-12-23T04:47:32.034Z,3.53
2018-12-23T04:49:59.776Z,4.20
2018-12-23T04:52:27.497Z,3.30
2018-12-23T04:54:55.217Z,4.00
2018-12-23T04:57:23.029Z,3.57
2018-12-23T04:59:50.763Z,3.77
2018-12-23T05:02:18.482Z,3.80
2018-12-23T05:04:46.241Z,3.50
2018-12-23T05:07:14.054Z,3.50
2018-12-23T05:09:41.783Z,3.73
2018-12-23T05:12:09.514Z,4.10
2018-12-23T05:14:37.251Z,3.87
2018-12-23T05:17:04.916Z,3.20
2018-12-23T05:19:32.653Z,4.07
2018-12-23T05:22:00.377Z,3.77
2018-12-23T05:24:28.097Z,3.87
2018-12-23T05:26:55.829Z,4.37
2018-12-23T05:29:23.571Z,4.10
2018-12-23T05:31:51.326Z,3.80
2018-12-23T05:34:19.059Z,3.60
2018-12-23T05:36:52.330Z,3.33
2018-12-23T05:39:17.024Z,3.73
2018-12-23T05:41:44.741Z,3.43
2018-12-23T05:44:12.554Z,3.50
2018-12-23T05:46:40.312Z,3.60
2018-12-23T05:49:08.064Z,3.27
2018-12-23T05:51:35.793Z,3.67
2018-12-23T05:54:03.625Z,3.70
2018-12-23T05:56:31.322Z,3.90
2018-12-23T05:58:59.052Z,3.63
2018-12-23T06:01:26.751Z,3.97
2018-12-23T06:03:54.454Z,3.87
2018-12-23T06:06:22.185Z,4.70
2018-12-23T06:08:49.962Z,3.73
2018-12-23T06:11:17.915Z,4.20
2018-12-23T06:13:45.646Z,3.80
2018-12-23T06:16:13.372Z,4.00
2018-12-23T06:18:41.129Z,4.03
2018-12-23T06:21:08.813Z,4.07
2018-12-23T06:23:36.521Z,3.67
2018-12-23T06:26:04.304Z,3.27
2018-12-23T06:28:32.066Z,3.47
2018-12-23T06:30:59.810Z,2.97
2018-12-23T06:33:27.572Z,3.07
2018-12-23T06:35:55.341Z,3.13
2018-12-23T06:38:23.080Z,3.33
2018-12-23T06:40:50.802Z,3.73
2018-12-23T07:45:08.688Z,3.63
2018-12-23T07:47:36.370Z,4.30
2018-12-23T07:50:04.333Z,3.90
2018-12-23T07:52:32.015Z,3.37
2018-12-23T07:55:00.003Z,3.43
2018-12-23T07:57:27.729Z,3.80
2018-12-23T07:59:55.407Z,3.70
2018-12-23T08:02:23.125Z,4.03
2018-12-23T08:04:50.927Z,4.20
2018-12-23T08:07:18.640Z,3.80
2018-12-23T08:09:46.341Z,3.90
2018-12-23T08:12:14.064Z,4.47
2018-12-23T08:14:41.730Z,3.53
2018-12-23T08:17:09.452Z,3.70
2018-12-23T08:19:37.122Z,4.30
2018-12-23T08:22:04.811Z,4.00
2018-12-23T08:24:32.519Z,3.60
2018-12-23T08:27:00.187Z,3.30
2018-12-23T08:29:28.201Z,3.90
2018-12-23T08:31:55.924Z,3.17
2018-12-23T08:34:23.630Z,3.87
2018-12-23T08:36:53.775Z,3.53
2018-12-23T08:39:21.456Z,3.63
2018-12-23T08:41:49.202Z,3.50
2018-12-23T08:44:16.959Z,3.80
2018-12-23T08:46:44.629Z,2.93
2018-12-23T08:49:15.322Z,3.17
2018-12-23T08:51:43.595Z,3.57
2018-12-23T08:54:11.548Z,3.67
2018-12-23T08:56:39.275Z,4.00
2018-12-23T08:59:07.000Z,4.23
2018-12-23T09:01:35.145Z,4.00
2018-12-23T09:04:02.816Z,3.20
2018-12-23T09:06:30.517Z,3.23
2018-12-23T09:08:58.191Z,3.57
2018-12-23T09:11:25.893Z,3.63
2018-12-23T09:13:53.557Z,4.27
2018-12-23T09:16:21.377Z,3.90
2018-12-23T09:18:49.054Z,3.97
2018-12-23T09:21:16.942Z,4.60
2018-12-23T09:23:44.645Z,4.00
2018-12-23T09:26:12.370Z,3.37
2018-12-23T09:28:40.051Z,4.00
2018-12-23T09:31:07.895Z,3.30
2018-12-23T09:33:35.612Z,3.90
2018-12-23T09:36:03.289Z,3.87
2018-12-23T09:38:31.023Z,3.67
2018-12-23T09:40:58.688Z,4.00
2018-12-23T09:43:26.402Z,3.80
2018-12-23T09:45:54.114Z,3.40
2018-12-23T09:48:21.794Z,3.97
2018-12-23T09:50:49.515Z,4.00
2018-12-23T09:53:17.219Z,4.13
2018-12-23T09:55:44.897Z,4.80
2018-12-23T09:58:12.615Z,3.90
2018-12-23T10:00:40.362Z,4.53
2018-12-23T10:03:08.051Z,3.87
2018-12-23T10:05:35.790Z,4.40
2018-12-23T10:08:09.935Z,4.03
2018-12-23T10:10:33.117Z,3.80
2018-12-23T10:13:00.824Z,4.67
2018-12-23T10:15:28.527Z,4.40
2018-12-23T10:17:56.223Z,5.07
2018-12-23T10:20:23.920Z,4.37
2018-12-23T10:22:51.641Z,5.80
2018-12-23T10:25:19.360Z,5.43
2018-12-23T10:27:47.034Z,4.37
2018-12-23T10:30:14.708Z,4.23
2018-12-23T10:32:42.415Z,4.60
2018-12-23T10:35:10.085Z,4.83
2018-12-23T10:37:37.775Z,4.90
2018-12-23T10:40:05.719Z,4.70
2018-12-23T10:42:33.436Z,4.30
2018-12-23T10:45:01.137Z,4.20
2018-12-23T10:47:28.811Z,4.23
2018-12-23T10:49:56.552Z,4.67
2018-12-23T10:52:24.424Z,4.63
2018-12-23T10:54:52.109Z,4.03
2018-12-23T10:57:19.858Z,4.00
2018-12-23T10:59:47.560Z,3.90
2018-12-23T11:02:15.240Z,4.40
2018-12-23T11:04:42.985Z,3.60
2018-12-23T11:07:10.702Z,3.73
2018-12-23T11:09:38.380Z,3.73
2018-12-23T11:12:06.124Z,2.70
2018-12-23T11:14:33.808Z,2.83
2018-12-23T11:17:01.499Z,3.47
2018-12-23T11:19:29.214Z,4.13
2018-12-23T11:21:56.912Z,3.00
2018-12-23T11:24:24.598Z,3.67
2018-12-23T11:26:53.879Z,3.53
2018-12-23T11:29:21.690Z,2.73
2018-12-23T11:31:49.351Z,2.50
2018-12-23T11:34:17.058Z,2.97
2018-12-23T11:36:44.751Z,3.00
2018-12-23T11:39:12.514Z,3.20
2018-12-23T11:41:40.278Z,2.80
2018-12-23T11:44:08.014Z,3.00
2018-12-23T11:46:35.719Z,2.67
2018-12-23T11:49:03.372Z,3.43
2018-12-23T11:51:31.052Z,2.90
2018-12-23T11:53:58.764Z,2.10
2018-12-23T11:56:26.485Z,2.30
2018-12-23T11:58:54.199Z,2.23
2018-12-23T12:01:21.878Z,2.10
2018-12-23T12:03:49.605Z,2.20
2018-12-23T12:06:17.619Z,2.70
2018-12-23T12:08:45.342Z,2.27
2018-12-23T12:11:13.102Z,2.00
2018-12-23T12:13:40.801Z,2.40
2018-12-23T12:16:08.514Z,2.10
2018-12-23T12:18:36.265Z,1.70
2018-12-23T12:21:03.990Z,1.70
2018-12-23T12:23:31.658Z,1.97
2018-12-23T12:25:59.325Z,1.63
2018-12-23T12:28:27.020Z,1.87
2018-12-23T12:30:55.004Z,1.60
2018-12-23T12:33:22.655Z,1.63
2018-12-23T12:35:50.709Z,1.60
2018-12-23T12:38:19.329Z,1.50
2018-12-23T12:40:47.445Z,1.80
2018-12-23T12:43:15.311Z,1.60
2018-12-23T12:45:43.523Z,1.40
2018-12-23T12:48:11.254Z,1.50
2018-12-23T12:50:38.967Z,1.27
2018-12-23T12:53:06.665Z,1.30
2018-12-23T12:55:34.324Z,1.30
2018-12-23T12:58:02.021Z,2.37
2018-12-23T13:00:29.757Z,1.80
2018-12-23T13:02:57.543Z,2.00
2018-12-23T13:05:25.262Z,1.70
2018-12-23T13:07:52.992Z,1.73
2018-12-23T13:10:21.267Z,1.97
2018-12-23T13:12:52.050Z,1.70
2018-12-23T13:15:19.737Z,1.90
2018-12-23T13:17:47.438Z,1.70
2018-12-23T13:20:15.173Z,2.00
2018-12-23T13:22:42.923Z,2.20
2018-12-23T13:25:10.601Z,2.40
2018-12-23T13:27:38.373Z,2.63
2018-12-23T13:30:07.840Z,3.60
2018-12-23T13:32:35.952Z,4.77
2018-12-23T13:35:03.922Z,3.67
2018-12-23T13:37:31.628Z,2.30
2018-12-23T13:40:07.451Z,1.60
2018-12-23T13:43:07.468Z,2.10
2018-12-23T13:46:09.601Z,1.60
2018-12-23T13:49:00.767Z,1.50
2018-12-23T13:51:50.025Z,1.30
2018-12-23T13:54:44.535Z,1.30
2018-12-23T13:57:44.350Z,1.50
2018-12-23T14:01:14.956Z,1.60
2018-12-23T14:04:14.951Z,1.30
2018-12-23T14:07:18.121Z,1.30
2018-12-23T14:10:32.209Z,1.20
2018-12-23T14:13:00.285Z,2.13
2018-12-23T14:15:28.367Z,1.60
2018-12-23T14:17:56.053Z,1.33
2018-12-23T14:20:23.792Z,1.37
2018-12-23T14:22:51.490Z,1.13
2018-12-23T14:25:19.232Z,1.17
2018-12-23T14:27:47.124Z,1.60
2018-12-23T14:30:14.795Z,1.43
2018-12-23T14:32:42.451Z,1.57
2018-12-23T14:35:10.206Z,1.63
2018-12-23T14:37:37.887Z,1.60
2018-12-23T14:40:05.710Z,1.67
2018-12-23T14:42:33.455Z,1.50
2018-12-23T14:45:01.134Z,1.40
2018-12-23T14:47:28.840Z,1.27
2018-12-23T14:49:56.551Z,1.63
2018-12-23T14:52:24.225Z,1.47
2018-12-23T14:54:51.993Z,2.10
2018-12-23T14:57:19.710Z,1.83
2018-12-23T14:59:47.709Z,2.00
2018-12-23T15:02:15.382Z,2.03
2018-12-23T15:04:43.092Z,1.93
2018-12-23T15:07:10.812Z,1.90
2018-12-23T15:09:38.512Z,2.10
2018-12-23T15:12:06.410Z,1.90
2018-12-23T15:14:34.284Z,1.90
2018-12-23T15:17:02.150Z,2.20
2018-12-23T15:19:30.388Z,2.50
2018-12-23T15:21:58.067Z,2.90
2018-12-23T15:24:25.873Z,3.80
2018-12-23T15:26:53.643Z,3.50
2018-12-23T15:29:21.338Z,3.63
2018-12-23T15:31:49.036Z,4.20
2018-12-23T15:34:16.799Z,4.20
2018-12-23T15:36:44.482Z,4.07
2018-12-23T15:39:12.150Z,3.67
2018-12-23T15:41:39.863Z,3.40
2018-12-23T15:44:07.523Z,3.83
2018-12-23T15:46:35.229Z,4.00
2018-12-23T15:49:03.218Z,6.67
2018-12-23T15:51:30.908Z,6.43
2018-12-23T15:53:58.768Z,5.63
2018-12-23T15:56:26.465Z,4.70
2018-12-23T15:58:54.131Z,4.40
2018-12-23T16:01:21.814Z,3.30
2018-12-23T16:03:49.465Z,2.67
2018-12-23T16:06:17.130Z,2.40
2018-12-23T16:08:44.928Z,2.67
2018-12-23T16:11:12.705Z,4.80
2018-12-23T16:13:40.530Z,7.33
2018-12-23T16:16:08.199Z,9.03
2018-12-23T16:18:36.240Z,9.60
2018-12-23T16:21:03.920Z,8.97
2018-12-23T16:23:31.594Z,7.27
2018-12-23T16:25:59.247Z,6.23
2018-12-23T16:28:26.963Z,4.27
2018-12-23T16:30:54.653Z,3.43
2018-12-23T16:33:22.380Z,3.60
2018-12-23T16:35:50.136Z,3.23
2018-12-23T16:38:17.831Z,2.40
2018-12-23T16:40:45.569Z,2.13
2018-12-23T16:43:13.339Z,2.20
2018-12-23T16:45:41.001Z,2.13
2018-12-23T16:48:08.720Z,2.07
2018-12-23T16:50:36.515Z,2.30
2018-12-23T16:53:04.215Z,1.90
2018-12-23T16:55:31.917Z,1.87
2018-12-23T16:58:01.350Z,2.20
2018-12-23T17:00:29.172Z,2.70
2018-12-23T17:02:56.831Z,2.07
2018-12-23T17:05:24.593Z,1.87
2018-12-23T17:07:52.331Z,2.40
2018-12-23T17:10:20.091Z,2.33
2018-12-23T17:12:47.765Z,2.70
2018-12-23T17:15:15.443Z,2.83
2018-12-23T17:17:43.117Z,2.43
2018-12-23T17:20:12.644Z,2.93
2018-12-23T17:22:40.378Z,4.20
2018-12-23T17:25:08.273Z,3.80
2018-12-23T17:27:35.958Z,2.83
2018-12-23T17:30:04.439Z,3.00
2018-12-23T17:32:33.032Z,3.30
2018-12-23T17:35:00.773Z,3.37
2018-12-23T17:37:29.015Z,2.90
2018-12-23T17:39:56.951Z,2.53
2018-12-23T17:42:24.661Z,3.10
2018-12-23T17:44:52.482Z,2.47
2018-12-23T17:47:21.880Z,2.47
2018-12-23T17:49:49.665Z,2.40
2018-12-23T17:52:23.181Z,2.43
2018-12-23T17:54:46.950Z,2.40
2018-12-23T17:57:14.797Z,2.60
2018-12-23T17:59:42.832Z,2.70
2018-12-23T18:02:11.191Z,3.10
2018-12-23T18:04:38.916Z,2.70
2018-12-23T18:07:06.620Z,2.70
2018-12-23T18:09:34.283Z,2.40
2018-12-23T18:12:02.044Z,3.10
2018-12-23T18:14:29.802Z,3.40
2018-12-23T18:16:57.484Z,3.37
2018-12-23T18:19:25.152Z,3.50
2018-12-23T18:21:52.804Z,3.30
2018-12-23T18:24:20.517Z,3.20
2018-12-23T18:26:48.227Z,2.80
2018-12-23T18:29:15.876Z,3.20
2018-12-23T18:31:43.605Z,2.93
2018-12-23T18:34:11.264Z,3.00
2018-12-23T18:36:39.047Z,2.63
2018-12-23T18:39:07.042Z,3.10
2018-12-23T18:41:34.736Z,3.20
2018-12-23T18:44:02.427Z,4.07
2018-12-23T18:46:30.189Z,3.43
2018-12-23T18:48:57.908Z,4.00
2018-12-23T18:51:25.626Z,6.50
2018-12-23T18:53:53.330Z,5.17
2018-12-23T18:56:32.275Z,4.80
2018-12-23T18:59:00.019Z,4.43
2018-12-23T19:01:28.759Z,4.90
2018-12-23T19:03:56.573Z,4.80
2018-12-23T19:06:24.289Z,3.87
2018-12-23T19:09:22.887Z,4.07
2018-12-23T19:12:30.783Z,3.60
2018-12-23T19:15:52.015Z,3.87
2018-12-23T19:19:00.591Z,3.63
2018-12-23T19:22:17.698Z,3.23
2018-12-23T19:25:17.298Z,3.80
2018-12-23T19:28:24.192Z,4.37
2018-12-23T19:31:41.364Z,3.60
2018-12-23T19:34:52.376Z,3.60
2018-12-23T19:38:18.136Z,3.13
2018-12-23T19:41:21.888Z,3.03
2018-12-23T19:44:21.449Z,3.10
2018-12-23T19:47:08.510Z,2.90
2018-12-23T19:50:20.615Z,3.00
2018-12-23T19:53:32.738Z,2.83
2018-12-23T19:56:14.270Z,2.80
2018-12-23T19:59:18.689Z,3.33
2018-12-23T20:02:22.581Z,2.80
2018-12-23T20:05:43.848Z,2.90
2018-12-23T20:08:54.330Z,3.23
2018-12-23T20:12:05.584Z,3.13
2018-12-23T20:15:05.482Z,3.43
2018-12-23T20:18:12.591Z,3.53
2018-12-23T20:21:20.371Z,2.23
2018-12-23T20:24:40.727Z,2.20
2018-12-23T20:27:48.376Z,2.33
2018-12-23T20:30:53.216Z,1.80
2018-12-23T20:34:07.033Z,2.10
2018-12-23T20:37:06.521Z,1.60
2018-12-23T20:40:25.036Z,1.80
2018-12-23T20:43:29.326Z,1.53
2018-12-23T20:46:29.040Z,2.23
2018-12-23T20:50:02.864Z,1.50
2018-12-23T20:53:18.255Z,1.60
2018-12-23T20:56:41.614Z,1.40
2018-12-23T20:59:55.242Z,1.40
2018-12-23T21:03:16.562Z,1.40
2018-12-23T21:06:19.867Z,1.57
2018-12-23T21:09:35.758Z,1.60
2018-12-23T21:12:50.750Z,1.80
2018-12-23T21:16:11.419Z,1.60
2018-12-23T21:19:16.559Z,1.63
2018-12-23T21:22:10.662Z,1.50
2018-12-23T21:25:19.875Z,1.63
2018-12-23T21:28:34.248Z,1.53
2018-12-23T21:31:55.602Z,1.97
2018-12-23T21:35:09.209Z,1.43
2018-12-23T21:37:59.356Z,1.60
2018-12-23T21:41:03.091Z,1.50
2018-12-23T21:44:30.677Z,1.10
2018-12-23T21:47:29.317Z,0.87
2018-12-23T21:50:34.665Z,0.70
2018-12-23T21:53:46.536Z,0.80
2018-12-23T21:57:03.596Z,1.10
2018-12-23T22:00:04.135Z,0.90
2018-12-23T22:03:06.368Z,0.80
2018-12-23T22:06:14.653Z,0.90
2018-12-23T22:08:58.070Z,0.90
2018-12-23T22:11:52.320Z,0.80
2018-12-23T22:14:20.027Z,0.90
2018-12-23T22:16:47.735Z,0.90
2018-12-23T22:19:15.399Z,0.80
2018-12-23T22:21:43.047Z,0.70
2018-12-23T22:24:10.818Z,1.10
2018-12-23T22:26:38.502Z,0.70
2018-12-23T22:29:06.190Z,0.80
2018-12-23T22:31:33.919Z,0.73
2018-12-23T22:34:01.614Z,0.90
2018-12-23T22:36:29.301Z,1.00
2018-12-23T22:38:56.996Z,1.10
2018-12-23T22:41:27.782Z,0.80
2018-12-23T22:43:55.499Z,0.90
2018-12-23T22:46:23.149Z,1.00
2018-12-23T22:48:50.871Z,0.90
2018-12-23T22:51:18.627Z,1.13
2018-12-23T22:53:47.213Z,1.10
2018-12-23T22:56:15.014Z,1.17
2018-12-23T22:58:42.714Z,1.07
2018-12-23T23:01:10.398Z,1.00
2018-12-23T23:03:38.069Z,0.90
2018-12-23T23:06:05.799Z,1.20
2018-12-23T23:08:33.491Z,0.83
2018-12-23T23:11:01.156Z,0.90
2018-12-23T23:13:28.847Z,1.10
2018-12-23T23:15:59.236Z,0.90
2018-12-23T23:18:26.905Z,0.83
2018-12-23T23:20:54.599Z,0.90
2018-12-23T23:23:22.571Z,0.83
2018-12-23T23:25:50.255Z,1.17
2018-12-23T23:28:17.911Z,0.90
2018-12-23T23:30:45.572Z,0.90
2018-12-23T23:33:13.293Z,0.80
2018-12-23T23:35:42.010Z,0.90
2018-12-23T23:38:09.704Z,1.00
2018-12-23T23:40:37.400Z,0.90
2018-12-23T23:43:05.115Z,0.80
2018-12-23T23:45:32.821Z,0.90
2018-12-23T23:48:00.493Z,1.13
2018-12-23T23:50:28.194Z,0.90
2018-12-23T23:52:55.917Z,0.97
2018-12-23T23:55:23.613Z,1.30
2018-12-23T23:57:51.281Z,0.90
